Swansea, Australia

2:01 PM AEDT on March 23, 2017 (GMT +1100)
The Grange Hills Swansea | | Change Station

Elev 79 ft 42.04 °S, 148.08 °E | Updated 1 minute ago

Overcast
Overcast
62.2 °F
Feels Like 62.2 °F
N
2.9
Wind Variable Wind from SSW
Gusts 7.0 mph

Today
High -- | Low -- °F
--% Chance of Precip.
Yesterday
High -- | Low -- °F
Precip. -- in
Pressure 30.30 in
Visibility 6.2 miles
Clouds Few 2000 ft
Mostly Cloudy 4700 ft
Dew Point 53 °F
Humidity 72%
Rainfall 0.09 in
Snow Depth Not available.
7:13 AM 7:14 PM
Waning Crescent, 27% visible
METAR YMHB 230230Z 14003KT 9999 FEW020 BKN047 16/10 Q1026 RF00.0/000.0
Pressure 30.30 in
Visibility 6.2 miles
Clouds Few 2000 ft
Mostly Cloudy 4700 ft
Dew Point 53 °F
Humidity 72%
Rainfall 0.09 in
Snow Depth Not available.
7:13 AM 7:14 PM
Waning Crescent, 27% visible
METAR YMHB 230230Z 14003KT 9999 FEW020 BKN047 16/10 Q1026 RF00.0/000.0

Get Severe Weather Alerts

Thanks for signing up!

Be on the lookout for a verification email in your inbox.

You'll start receiving the daily forecast at 8 AM.

×

10-Day Weather Forecast

×

Almanac

Astronomy

Mar. 23, 2017 Rise Set
Actual Time
Civil Twilight
Nautical Twilight
Astronomical Twilight
Moon
Length of Visible Light
Length of Day
Tomorrow will be .
, % of the Moon is Illuminated

Today's Extremes

Country Highs Country Lows

Community

WunderPhotos

Upload Photos

1,962,540 photos uploaded!

WunderBlog® & News

Nearby

Air Quality

  Air Quality AQ Index Pollutant
Not available.

Snow Depth

Station Depth Elevation

Earthquake Activity

City Distance Mag. Time & Date
Minimum magnitude displayed is 2.5.

Earthquake Activity

City Distance Mag. Time & Date
Minimum magnitude displayed is 2.5.

Coastal Water Temperatures

Place Temperature

Stations

Nearby Weather Stations

Station Location Temp. Windchill Dew Point Humidity Wind Precip. Elev Updated Type